Oryu Maru — JL5702 — position and weather

sailwx.info

Track history (hours):
 
Tides and Currents Weather Stations Pressure Air Temp Water Temp Dewpoint Dewpoint Depression Visibility Wind Speed Wind Dir Waves Ship Positions

Oryu Maru

Last reported at 2017-Oct-05 15:28 UTC. Time now 2017-Oct-22 06:09 UTC.
Position N 34°58' E 139°27'.
Warning: this ship's position is 16 days out of date.

Length 115 m; draft 5 m.

Type: Cargo ship. MMSI: 431500955.

Date/timePositionNaut miles runAvg speedWind from/ knotsBaromVisibWave heightAir tempDewpointWater temp
2017-Oct-05 15:28N 34°58' E 139°27'714.3
2017-Oct-05 15:00N 35°02' E 139°34'816.2
2017-Oct-05 14:30N 35°07' E 139°42'815.2
2017-Oct-05 14:00N 35°14' E 139°46'713.3
2017-Oct-05 13:30N 35°20' E 139°43'714.1
2017-Oct-05 13:01N 35°27' E 139°43'1 3.0
2017-Oct-05 12:30N 35°28' E 139°43'0 0.0
2017-Oct-05 12:00N 35°28' E 139°43'0 0.0
2017-Oct-05 11:30N 35°28' E 139°43'0 0.0
2017-Oct-05 11:00N 35°28' E 139°43'0 0.0
2017-Oct-05 10:30N 35°28' E 139°43'0 0.1
2017-Oct-05 10:01N 35°28' E 139°43'0 0.0
2017-Oct-05 09:31N 35°28' E 139°43'0 0.1
2017-Oct-05 09:01N 35°28' E 139°43'0 0.0
2017-Oct-05 08:30N 35°28' E 139°43'0 0.1
2017-Oct-05 08:01N 35°28' E 139°43'0 0.1
2017-Oct-05 07:31N 35°28' E 139°43'0 0.0
2017-Oct-05 07:01N 35°28' E 139°43'0 0.0
2017-Oct-05 06:31N 35°28' E 139°43'0 0.1
2017-Oct-05 06:00N 35°28' E 139°43'1 2.2
2017-Oct-05 05:30N 35°27' E 139°43'4 8.1
2017-Oct-05 05:00N 35°28' E 139°48'510.1
2017-Oct-05 04:30N 35°31' E 139°53'6 0.8
2017-Oct-04 20:54N 35°36' E 139°57'6 0.8
2017-Oct-04 14:10N 35°31' E 139°54'214.1
2017-Oct-04 14:00N 35°29' E 139°52'714.0
2017-Oct-04 13:31N 35°24' E 139°46'612.0
2017-Oct-04 13:01N 35°19' E 139°44'611.4
2017-Oct-04 12:30N 35°14' E 139°47'713.3
2017-Oct-04 12:00N 35°07' E 139°44'713.9
2017-Oct-04 11:30N 35°02' E 139°39'  
2017-Sep-29 19:00N 35°32' E 139°55'714.3
2017-Sep-29 18:30N 35°26' E 139°49'612.7
2017-Sep-29 18:01N 35°21' E 139°45'610.8
2017-Sep-29 17:30N 35°16' E 139°47'612.6
2017-Sep-29 17:00N 35°10' E 139°46'714.5
2017-Sep-29 16:30N 35°03' E 139°42'815.2
2017-Sep-29 16:00N 34°58' E 139°35'  
2017-Sep-25 15:55N 34°57' E 139°24'513.0
2017-Sep-25 15:30N 34°60' E 139°29'  
Track history (hours):
 
Tides and Currents Weather Stations Pressure Air Temp Water Temp Dewpoint Dewpoint Depression Visibility Wind Speed Wind Dir Waves Ship Positions

Oryu Maru

Last reported at 2017-Oct-05 15:28 UTC. Time now 2017-Oct-22 06:09 UTC.
Position N 34°58' E 139°27'.
Warning: this ship's position is 16 days out of date.

Length 115 m; draft 5 m.

Type: Cargo ship. MMSI: 431500955.

Date/timePositionNaut miles runAvg speedWind from/ knotsBaromVisibWave heightAir tempDewpointWater temp
2017-Oct-05 15:28N 34°58' E 139°27'714.3
2017-Oct-05 15:00N 35°02' E 139°34'816.2
2017-Oct-05 14:30N 35°07' E 139°42'815.2
2017-Oct-05 14:00N 35°14' E 139°46'713.3
2017-Oct-05 13:30N 35°20' E 139°43'714.1
2017-Oct-05 13:01N 35°27' E 139°43'1 3.0
2017-Oct-05 12:30N 35°28' E 139°43'0 0.0
2017-Oct-05 12:00N 35°28' E 139°43'0 0.0
2017-Oct-05 11:30N 35°28' E 139°43'0 0.0
2017-Oct-05 11:00N 35°28' E 139°43'0 0.0
2017-Oct-05 10:30N 35°28' E 139°43'0 0.1
2017-Oct-05 10:01N 35°28' E 139°43'0 0.0
2017-Oct-05 09:31N 35°28' E 139°43'0 0.1
2017-Oct-05 09:01N 35°28' E 139°43'0 0.0
2017-Oct-05 08:30N 35°28' E 139°43'0 0.1
2017-Oct-05 08:01N 35°28' E 139°43'0 0.1
2017-Oct-05 07:31N 35°28' E 139°43'0 0.0
2017-Oct-05 07:01N 35°28' E 139°43'0 0.0
2017-Oct-05 06:31N 35°28' E 139°43'0 0.1
2017-Oct-05 06:00N 35°28' E 139°43'1 2.2
2017-Oct-05 05:30N 35°27' E 139°43'4 8.1
2017-Oct-05 05:00N 35°28' E 139°48'510.1
2017-Oct-05 04:30N 35°31' E 139°53'6 0.8
2017-Oct-04 20:54N 35°36' E 139°57'6 0.8
2017-Oct-04 14:10N 35°31' E 139°54'214.1
2017-Oct-04 14:00N 35°29' E 139°52'714.0
2017-Oct-04 13:31N 35°24' E 139°46'612.0
2017-Oct-04 13:01N 35°19' E 139°44'611.4
2017-Oct-04 12:30N 35°14' E 139°47'713.3
2017-Oct-04 12:00N 35°07' E 139°44'713.9
2017-Oct-04 11:30N 35°02' E 139°39'  
2017-Sep-29 19:00N 35°32' E 139°55'714.3
2017-Sep-29 18:30N 35°26' E 139°49'612.7
2017-Sep-29 18:01N 35°21' E 139°45'610.8
2017-Sep-29 17:30N 35°16' E 139°47'612.6
2017-Sep-29 17:00N 35°10' E 139°46'714.5
2017-Sep-29 16:30N 35°03' E 139°42'815.2
2017-Sep-29 16:00N 34°58' E 139°35'  
2017-Sep-25 15:55N 34°57' E 139°24'513.0
2017-Sep-25 15:30N 34°60' E 139°29'  

Dump ship's entire track history